Gazpromneft East — UBOF4 — position and weather

sailwx.info

Track history (hours):
 
Tides and Currents Weather Stations Pressure Air Temp Water Temp Dewpoint Dewpoint Depression Visibility Wind Speed Wind Dir Waves Ship Positions

Gazpromneft East

Last reported at 2015-Mar-30 08:22 UTC. Time now 2015-Mar-31 02:02 UTC.
Position N 59°54' E 030°06'.

Length 79 m; draft 4.5 m.

Type: Tanker. MMSI: 273335320.

Date/timePositionNaut miles runAvg speedWind from/ knotsBaromVisibWave heightAir tempDewpointWater temp
2015-Mar-30 08:22N 59°54' E 030°06'4 5.0
2015-Mar-30 07:33N 59°53' E 030°13'0 0.0
2015-Mar-30 06:30N 59°53' E 030°13'0 0.0
2015-Mar-30 05:34N 59°53' E 030°13'0 0.0
2015-Mar-30 04:30N 59°53' E 030°13'0 0.0
2015-Mar-30 03:27N 59°53' E 030°13'0 0.0
2015-Mar-30 02:33N 59°53' E 030°13'0 0.0
2015-Mar-30 01:33N 59°53' E 030°13'0 0.0
2015-Mar-30 00:33N 59°53' E 030°13'0 0.0
2015-Mar-29 23:33N 59°53' E 030°13'0 0.2
2015-Mar-29 22:33N 59°53' E 030°13'1 0.2
2015-Mar-29 18:15N 59°53' E 030°11'0 0.0
2015-Mar-29 17:09N 59°53' E 030°11'0 0.1
2015-Mar-29 13:33N 59°53' E 030°11'3 3.0
2015-Mar-29 12:33N 59°55' E 030°14'0 0.0
2015-Mar-29 11:34N 59°55' E 030°14'0 0.0
2015-Mar-29 10:33N 59°55' E 030°14'0 0.0
2015-Mar-29 09:33N 59°55' E 030°14'0 0.0
2015-Mar-29 08:33N 59°55' E 030°14'0 0.0
2015-Mar-29 07:33N 59°55' E 030°14'3 2.9
2015-Mar-29 06:31N 59°53' E 030°10'0 0.0
2015-Mar-28 19:33N 59°53' E 030°10'0 0.0
2015-Mar-28 13:07N 59°53' E 030°10'2 4.2
2015-Mar-28 12:33N 59°54' E 030°14'1 1.1
2015-Mar-28 11:33N 59°55' E 030°14'0 0.0
2015-Mar-28 10:33N 59°55' E 030°14'0 0.0
2015-Mar-28 09:33N 59°55' E 030°14'2 2.2
2015-Mar-28 08:33N 59°53' E 030°12'1 0.7
2015-Mar-28 07:33N 59°53' E 030°14'0 0.0
2015-Mar-28 06:33N 59°53' E 030°14'0 0.0
2015-Mar-28 05:33N 59°53' E 030°14'0 0.0
2015-Mar-28 04:33N 59°53' E 030°14'0 0.2
2015-Mar-28 03:33N 59°53' E 030°13'0 0.4
2015-Mar-28 02:33N 59°53' E 030°12'0 0.0
2015-Mar-28 01:33N 59°53' E 030°12'0 0.0
2015-Mar-28 00:33N 59°53' E 030°12'0 0.0
2015-Mar-27 23:33N 59°53' E 030°12'0 0.0
2015-Mar-27 22:33N 59°53' E 030°12'0 0.0
2015-Mar-27 21:32N 59°53' E 030°12'0 0.0
2015-Mar-27 20:33N 59°53' E 030°12'1 0.1
2015-Mar-27 16:32N 59°53' E 030°13'1 1.3
2015-Mar-27 15:33N 59°53' E 030°11'0 0.0
2015-Mar-27 14:33N 59°53' E 030°11'0 0.0
2015-Mar-27 13:33N 59°53' E 030°11'0 0.0
2015-Mar-27 12:33N 59°53' E 030°11'0 0.0
2015-Mar-27 11:33N 59°53' E 030°11'1 1.3
2015-Mar-27 10:33N 59°53' E 030°13'0 0.1
2015-Mar-27 09:24N 59°53' E 030°13'0 0.0
2015-Mar-27 08:29N 59°53' E 030°13'0 0.0
2015-Mar-27 05:18N 59°53' E 030°13'0 0.0
2015-Mar-27 04:33N 59°53' E 030°13'0 0.0
2015-Mar-27 03:19N 59°53' E 030°13'0 0.0
2015-Mar-27 02:33N 59°53' E 030°13'0 0.0
2015-Mar-27 01:32N 59°53' E 030°13'0 0.0
2015-Mar-27 00:31N 59°53' E 030°13'0 0.0
2015-Mar-26 23:18N 59°53' E 030°13'0 0.0
2015-Mar-26 22:33N 59°53' E 030°13'0 0.0
2015-Mar-26 21:32N 59°53' E 030°13'0 0.0
2015-Mar-26 20:33N 59°53' E 030°13'0 0.0
2015-Mar-26 19:32N 59°53' E 030°13'0 0.0
2015-Mar-26 18:33N 59°53' E 030°13'0 0.0
2015-Mar-26 17:29N 59°53' E 030°13'0 0.0
2015-Mar-26 15:23N 59°53' E 030°13'0 0.0
2015-Mar-26 14:33N 59°53' E 030°13'0 0.0
2015-Mar-26 13:33N 59°53' E 030°13'0 0.0
2015-Mar-26 12:33N 59°53' E 030°13'0 0.0
2015-Mar-26 11:23N 59°53' E 030°13'0 0.0
2015-Mar-26 10:16N 59°53' E 030°13'0 0.0
2015-Mar-26 09:31N 59°53' E 030°13'0 0.0
2015-Mar-26 08:32N 59°53' E 030°13'0 0.0
2015-Mar-26 07:30N 59°53' E 030°13'0 0.0
2015-Mar-26 05:33N 59°53' E 030°13'1 0.6
2015-Mar-26 04:33N 59°53' E 030°12'3 0.3
2015-Mar-25 17:05N 59°54' E 030°06'3 6.4
2015-Mar-25 16:34N 59°53' E 030°13'0 0.2
2015-Mar-25 15:34N 59°54' E 030°13'0 0.0
2015-Mar-25 14:33N 59°54' E 030°13'0 0.0
2015-Mar-25 13:33N 59°54' E 030°13'0 0.0
2015-Mar-25 12:33N 59°54' E 030°13'0 0.0
2015-Mar-25 11:33N 59°53' E 030°13'1 0.5
2015-Mar-25 10:26N 59°53' E 030°13'0 0.0
2015-Mar-25 08:28N 59°53' E 030°13'0 0.0
2015-Mar-25 07:16N 59°53' E 030°13'3 3.6
2015-Mar-25 06:33N 59°54' E 030°08'2 0.2
2015-Mar-24 18:33N 59°53' E 030°12'1 0.3
2015-Mar-24 15:33N 59°53' E 030°14'1 0.8
2015-Mar-24 14:32N 59°53' E 030°12'0 0.0
2015-Mar-24 13:30N 59°53' E 030°12'0 0.0
2015-Mar-24 12:32N 59°53' E 030°12'0 0.2
2015-Mar-24 11:33N 59°53' E 030°12'1 0.1
2015-Mar-24 06:26N 59°53' E 030°13'0 0.0
2015-Mar-24 05:31N 59°53' E 030°13'0 0.0
2015-Mar-24 03:28N 59°53' E 030°13'0 0.0
2015-Mar-24 02:29N 59°53' E 030°13'0 0.0
2015-Mar-24 00:15N 59°53' E 030°13'0 0.0
2015-Mar-23 23:33N 59°53' E 030°13'0 0.0
2015-Mar-23 22:33N 59°53' E 030°13'0 0.0
2015-Mar-23 21:27N 59°53' E 030°13'0 0.0
2015-Mar-23 16:14N 59°53' E 030°13'0 0.0
2015-Mar-23 15:33N 59°53' E 030°13'0 0.0
2015-Mar-23 09:24N 59°53' E 030°13'0 0.0
2015-Mar-23 08:21N 59°53' E 030°13'0 0.0
2015-Mar-23 07:27N 59°53' E 030°13'0 0.0
2015-Mar-23 06:05N 59°53' E 030°13'0 0.0
2015-Mar-22 14:29N 59°53' E 030°13'0 0.0
2015-Mar-22 13:31N 59°53' E 030°13'0 0.0
2015-Mar-22 05:20N 59°53' E 030°13'0 0.0
2015-Mar-22 03:22N 59°53' E 030°13'0 0.0
2015-Mar-22 00:33N 59°53' E 030°13'0 0.1
2015-Mar-21 23:33N 59°53' E 030°14'0 0.0
2015-Mar-21 21:33N 59°53' E 030°14'0 0.0
2015-Mar-21 20:23N 59°53' E 030°14'0 0.0
2015-Mar-21 19:33N 59°53' E 030°14'0 0.1
2015-Mar-21 18:33N 59°53' E 030°13'1 0.2
2015-Mar-21 14:29N 59°52' E 030°13'1 0.9
2015-Mar-21 13:33N 59°53' E 030°12'3 3.0
2015-Mar-21 12:33N 59°55' E 030°14'0 0.0
2015-Mar-21 11:33N 59°55' E 030°14'0 0.0
2015-Mar-21 10:33N 59°55' E 030°14'0 0.0
2015-Mar-21 09:34N 59°55' E 030°14'0 0.0
2015-Mar-21 08:33N 59°55' E 030°14'2 1.5
2015-Mar-21 07:33N 59°54' E 030°13'1 0.1
2015-Mar-20 14:17N 59°53' E 030°13'3 3.6
2015-Mar-20 13:33N 59°55' E 030°14'0 0.0
2015-Mar-20 12:33N 59°55' E 030°14'0 0.0
2015-Mar-20 11:33N 59°55' E 030°14'1 0.6
2015-Mar-20 10:33N 59°55' E 030°14'2 1.5
2015-Mar-20 09:14N 59°53' E 030°13'0 0.0
2015-Mar-20 08:29N 59°53' E 030°13'  
Track history (hours):
 
Tides and Currents Weather Stations Pressure Air Temp Water Temp Dewpoint Dewpoint Depression Visibility Wind Speed Wind Dir Waves Ship Positions

Gazpromneft East

Last reported at 2015-Mar-30 08:22 UTC. Time now 2015-Mar-31 02:02 UTC.
Position N 59°54' E 030°06'.

Length 79 m; draft 4.5 m.

Type: Tanker. MMSI: 273335320.

Date/timePositionNaut miles runAvg speedWind from/ knotsBaromVisibWave heightAir tempDewpointWater temp
2015-Mar-30 08:22N 59°54' E 030°06'4 5.0
2015-Mar-30 07:33N 59°53' E 030°13'0 0.0
2015-Mar-30 06:30N 59°53' E 030°13'0 0.0
2015-Mar-30 05:34N 59°53' E 030°13'0 0.0
2015-Mar-30 04:30N 59°53' E 030°13'0 0.0
2015-Mar-30 03:27N 59°53' E 030°13'0 0.0
2015-Mar-30 02:33N 59°53' E 030°13'0 0.0
2015-Mar-30 01:33N 59°53' E 030°13'0 0.0
2015-Mar-30 00:33N 59°53' E 030°13'0 0.0
2015-Mar-29 23:33N 59°53' E 030°13'0 0.2
2015-Mar-29 22:33N 59°53' E 030°13'1 0.2
2015-Mar-29 18:15N 59°53' E 030°11'0 0.0
2015-Mar-29 17:09N 59°53' E 030°11'0 0.1
2015-Mar-29 13:33N 59°53' E 030°11'3 3.0
2015-Mar-29 12:33N 59°55' E 030°14'0 0.0
2015-Mar-29 11:34N 59°55' E 030°14'0 0.0
2015-Mar-29 10:33N 59°55' E 030°14'0 0.0
2015-Mar-29 09:33N 59°55' E 030°14'0 0.0
2015-Mar-29 08:33N 59°55' E 030°14'0 0.0
2015-Mar-29 07:33N 59°55' E 030°14'3 2.9
2015-Mar-29 06:31N 59°53' E 030°10'0 0.0
2015-Mar-28 19:33N 59°53' E 030°10'0 0.0
2015-Mar-28 13:07N 59°53' E 030°10'2 4.2
2015-Mar-28 12:33N 59°54' E 030°14'1 1.1
2015-Mar-28 11:33N 59°55' E 030°14'0 0.0
2015-Mar-28 10:33N 59°55' E 030°14'0 0.0
2015-Mar-28 09:33N 59°55' E 030°14'2 2.2
2015-Mar-28 08:33N 59°53' E 030°12'1 0.7
2015-Mar-28 07:33N 59°53' E 030°14'0 0.0
2015-Mar-28 06:33N 59°53' E 030°14'0 0.0
2015-Mar-28 05:33N 59°53' E 030°14'0 0.0
2015-Mar-28 04:33N 59°53' E 030°14'0 0.2
2015-Mar-28 03:33N 59°53' E 030°13'0 0.4
2015-Mar-28 02:33N 59°53' E 030°12'0 0.0
2015-Mar-28 01:33N 59°53' E 030°12'0 0.0
2015-Mar-28 00:33N 59°53' E 030°12'0 0.0
2015-Mar-27 23:33N 59°53' E 030°12'0 0.0
2015-Mar-27 22:33N 59°53' E 030°12'0 0.0
2015-Mar-27 21:32N 59°53' E 030°12'0 0.0
2015-Mar-27 20:33N 59°53' E 030°12'1 0.1
2015-Mar-27 16:32N 59°53' E 030°13'1 1.3
2015-Mar-27 15:33N 59°53' E 030°11'0 0.0
2015-Mar-27 14:33N 59°53' E 030°11'0 0.0
2015-Mar-27 13:33N 59°53' E 030°11'0 0.0
2015-Mar-27 12:33N 59°53' E 030°11'0 0.0
2015-Mar-27 11:33N 59°53' E 030°11'1 1.3
2015-Mar-27 10:33N 59°53' E 030°13'0 0.1
2015-Mar-27 09:24N 59°53' E 030°13'0 0.0
2015-Mar-27 08:29N 59°53' E 030°13'0 0.0
2015-Mar-27 05:18N 59°53' E 030°13'0 0.0
2015-Mar-27 04:33N 59°53' E 030°13'0 0.0
2015-Mar-27 03:19N 59°53' E 030°13'0 0.0
2015-Mar-27 02:33N 59°53' E 030°13'0 0.0
2015-Mar-27 01:32N 59°53' E 030°13'0 0.0
2015-Mar-27 00:31N 59°53' E 030°13'0 0.0
2015-Mar-26 23:18N 59°53' E 030°13'0 0.0
2015-Mar-26 22:33N 59°53' E 030°13'0 0.0
2015-Mar-26 21:32N 59°53' E 030°13'0 0.0
2015-Mar-26 20:33N 59°53' E 030°13'0 0.0
2015-Mar-26 19:32N 59°53' E 030°13'0 0.0
2015-Mar-26 18:33N 59°53' E 030°13'0 0.0
2015-Mar-26 17:29N 59°53' E 030°13'0 0.0
2015-Mar-26 15:23N 59°53' E 030°13'0 0.0
2015-Mar-26 14:33N 59°53' E 030°13'0 0.0
2015-Mar-26 13:33N 59°53' E 030°13'0 0.0
2015-Mar-26 12:33N 59°53' E 030°13'0 0.0
2015-Mar-26 11:23N 59°53' E 030°13'0 0.0
2015-Mar-26 10:16N 59°53' E 030°13'0 0.0
2015-Mar-26 09:31N 59°53' E 030°13'0 0.0
2015-Mar-26 08:32N 59°53' E 030°13'0 0.0
2015-Mar-26 07:30N 59°53' E 030°13'0 0.0
2015-Mar-26 05:33N 59°53' E 030°13'1 0.6
2015-Mar-26 04:33N 59°53' E 030°12'3 0.3
2015-Mar-25 17:05N 59°54' E 030°06'3 6.4
2015-Mar-25 16:34N 59°53' E 030°13'0 0.2
2015-Mar-25 15:34N 59°54' E 030°13'0 0.0
2015-Mar-25 14:33N 59°54' E 030°13'0 0.0
2015-Mar-25 13:33N 59°54' E 030°13'0 0.0
2015-Mar-25 12:33N 59°54' E 030°13'0 0.0
2015-Mar-25 11:33N 59°53' E 030°13'1 0.5
2015-Mar-25 10:26N 59°53' E 030°13'0 0.0
2015-Mar-25 08:28N 59°53' E 030°13'0 0.0
2015-Mar-25 07:16N 59°53' E 030°13'3 3.6
2015-Mar-25 06:33N 59°54' E 030°08'2 0.2
2015-Mar-24 18:33N 59°53' E 030°12'1 0.3
2015-Mar-24 15:33N 59°53' E 030°14'1 0.8
2015-Mar-24 14:32N 59°53' E 030°12'0 0.0
2015-Mar-24 13:30N 59°53' E 030°12'0 0.0
2015-Mar-24 12:32N 59°53' E 030°12'0 0.2
2015-Mar-24 11:33N 59°53' E 030°12'1 0.1
2015-Mar-24 06:26N 59°53' E 030°13'0 0.0
2015-Mar-24 05:31N 59°53' E 030°13'0 0.0
2015-Mar-24 03:28N 59°53' E 030°13'0 0.0
2015-Mar-24 02:29N 59°53' E 030°13'0 0.0
2015-Mar-24 00:15N 59°53' E 030°13'0 0.0
2015-Mar-23 23:33N 59°53' E 030°13'0 0.0
2015-Mar-23 22:33N 59°53' E 030°13'0 0.0
2015-Mar-23 21:27N 59°53' E 030°13'0 0.0
2015-Mar-23 16:14N 59°53' E 030°13'0 0.0
2015-Mar-23 15:33N 59°53' E 030°13'0 0.0
2015-Mar-23 09:24N 59°53' E 030°13'0 0.0
2015-Mar-23 08:21N 59°53' E 030°13'0 0.0
2015-Mar-23 07:27N 59°53' E 030°13'0 0.0
2015-Mar-23 06:05N 59°53' E 030°13'0 0.0
2015-Mar-22 14:29N 59°53' E 030°13'0 0.0
2015-Mar-22 13:31N 59°53' E 030°13'0 0.0
2015-Mar-22 05:20N 59°53' E 030°13'0 0.0
2015-Mar-22 03:22N 59°53' E 030°13'0 0.0
2015-Mar-22 00:33N 59°53' E 030°13'0 0.1
2015-Mar-21 23:33N 59°53' E 030°14'0 0.0
2015-Mar-21 21:33N 59°53' E 030°14'0 0.0
2015-Mar-21 20:23N 59°53' E 030°14'0 0.0
2015-Mar-21 19:33N 59°53' E 030°14'0 0.1
2015-Mar-21 18:33N 59°53' E 030°13'1 0.2
2015-Mar-21 14:29N 59°52' E 030°13'1 0.9
2015-Mar-21 13:33N 59°53' E 030°12'3 3.0
2015-Mar-21 12:33N 59°55' E 030°14'0 0.0
2015-Mar-21 11:33N 59°55' E 030°14'0 0.0
2015-Mar-21 10:33N 59°55' E 030°14'0 0.0
2015-Mar-21 09:34N 59°55' E 030°14'0 0.0
2015-Mar-21 08:33N 59°55' E 030°14'2 1.5
2015-Mar-21 07:33N 59°54' E 030°13'1 0.1
2015-Mar-20 14:17N 59°53' E 030°13'3 3.6
2015-Mar-20 13:33N 59°55' E 030°14'0 0.0
2015-Mar-20 12:33N 59°55' E 030°14'0 0.0
2015-Mar-20 11:33N 59°55' E 030°14'1 0.6
2015-Mar-20 10:33N 59°55' E 030°14'2 1.5
2015-Mar-20 09:14N 59°53' E 030°13'0 0.0
2015-Mar-20 08:29N 59°53' E 030°13'  

Dump ship's entire track history